SAS A20N at Split on Sep 4th 2021, tail strike on landing

Last Update: September 9, 2021 / 16:28:21 GMT/Zulu time

Bookmark this article
Incident Facts

Date of incident
Sep 4, 2021

Classification
Accident

Flight number
SK-7347

Destination
Split, Croatia

Aircraft Registration
SE-ROJ

Aircraft Type
Airbus A320-200N

ICAO Type Designator
A20N

Airport ICAO Code
LDSP

A SAS Scandinavian Airlines Airbus A320-200N, registration SE-ROJ performing flight SK-7347 from Bergen (Norway) to Split (Croatia), landed on Split's runway 05 at 12:34L (10:34Z) but struck its tail onto the runway surface. The aircraft rolled out without further incident and taxied to the apron.

On Sep 9th 2021 Croatia's AIN (Accident Investigation Board) reported they have opened an investigation into the occurrence.

The aircraft is still on the ground in Split 5 days later.

Metars:
LDSP 041200Z 22007KT 180V270 9999 FEW060 27/13 Q1015 NOSIG=
LDSP 041130Z 22006KT 140V260 9999 FEW060 26/13 Q1015 BECMG 23008KT=
LDSP 041100Z 19003KT 120V250 9999 FEW060 27/12 Q1015 BECMG 23008KT=
LDSP 041030Z VRB04KT 9999 FEW060 26/13 Q1015 NOSIG=
LDSP 041000Z 09004KT 040V150 CAVOK 26/12 Q1015 NOSIG=
LDSP 040930Z 11005KT 060V160 CAVOK 25/11 Q1015 NOSIG=
LDSP 040900Z 10006KT 050V120 CAVOK 24/13 Q1016 NOSIG=
LDSP 040830Z 09006KT 060V120 CAVOK 24/12 Q1016 NOSIG=
LDSP 040800Z 07006KT CAVOK 24/12 Q1016 NOSIG=
LDSP 040730Z 08005KT 040V110 CAVOK 23/12 Q1016 NOSIG=
LDSP 040700Z 12003KT 070V160 CAVOK 23/14 Q1016 NOSIG=
Incident Facts

Date of incident
Sep 4, 2021

Classification
Accident

Flight number
SK-7347

Destination
Split, Croatia

Aircraft Registration
SE-ROJ

Aircraft Type
Airbus A320-200N

ICAO Type Designator
A20N

Airport ICAO Code
LDSP

This article is published under license from Avherald.com. © of text by Avherald.com.
Article source

You can read 4 more free articles without a subscription.

Subscribe now and continue reading without any limits!

Are you a subscriber?
Login
Subscribe

Read unlimited articles and receive our daily update briefing. Gain better insights into what is happening in commercial aviation safety.

Free newsletter

Want to know more and stay ahead? Get our free weekly newsletter and join 5141 existing subscribers.

By subscribing, you accept our terms and conditions and confirm that you've read our privacy policy.

Send tip

Support AeroInside by sending a small tip amount.

Related articles

Newest articles

Subscribe today

Are you researching aviation incidents? Get access to AeroInside Insights, unlimited read access and receive the daily newsletter.

Pick your plan and subscribe

Partner

Blockaviation logo

A new way to document and demonstrate airworthiness compliance and aircraft value. Find out more.

Virtual Speech logo

ELITE Simulation Solutions is a leading global provider of Flight Simulation Training Devices, IFR training software as well as flight controls and related services. Find out more.

Get updates

Never miss an article from AeroInside. Subscribe to our free weekly newsletter and join 5141 existing subscribers.

By subscribing, you accept our terms and conditions and that you've read our privacy policy.

AeroInside Blog
Popular aircraft
Airbus A320
Boeing 737-800
Boeing 737-800 MAX
Popular airlines
American Airlines
United
Delta
Air Canada
Lufthansa
British Airways